Pagina principale
METAR-TAF:

METAR-TAF

Aeroporti :

Aeroporto di Riunione-Roland Garros

Saint-Denis, Riunione

latitudine: 20-53S, longitudine: 055-31E, altezza: 21 m

Osservazione

Il bollettino è stato emesso 23 minuti fa, alle 10:00 UTC
Vento 14 kt da est
Temperature 30°C
Umidità 66%
Pressione 1016 hPa
Visibilità 10 km o più

METAR: FMEE 121000Z AUTO 09014KT 9999 ///TCU 30/23 Q1016 BECMG SCT025

Ora: 14:23 (10:23 UTC)

Previsione

Il bollettino è stato emesso 5 ore e 23 minuti fa, alle 05:00 UTC
Previsione valida dal 12 alle 06 UTC al 13 alle 12 UTC
Vento 12 kt da est
Visibilità 10 km o più
Nubi sparse ad un'altezza di 2500 ft
Evoluzione graduale
dal 12 alle 15 UTC al 12 alle 17 UTC
Vento 6 kt da sud/sud-est
Evoluzione graduale
dal 13 alle 03 UTC al 13 alle 05 UTC
Vento 16 kt da est

TAF: FMEE 120500Z 1206/1312 09012KT 9999 SCT025 BECMG 1215/1217 15006KT BECMG 1303/1305 08016KT

Osservazioni e previsioni meteorologiche di più di 4000 aeroporti (messaggi METAR e TAF).

Le stazioni disponibili sono rappresentate dai dischi gialli e rossi sulla carta.

Puntare il mouse per vedere il nome della stazione.

Clicca sopra per visualizzare le osservazioni e previsioni meteorologiche.

Per cambiare la mappa : fare clic sui pulsanti verdi con una croce nera per ingrandire, il pulsante verde con un trattino per diminuire, o sulla freccia verde per le mappe adiacenti.


METAR-TAF: